createdAt,value
2019-03-05T00:01:49.518Z,58.56
2019-03-05T00:04:19.279Z,58.21
2019-03-05T00:06:49.107Z,58.08
2019-03-05T00:09:20.543Z,57.96
2019-03-05T00:11:50.265Z,58.00
2019-03-05T00:14:22.642Z,57.67
2019-03-05T00:16:52.376Z,57.85
2019-03-05T00:19:22.134Z,58.00
2019-03-05T00:21:51.848Z,57.91
2019-03-05T00:24:59.667Z,57.68
2019-03-05T00:27:30.285Z,57.52
2019-03-05T00:30:19.816Z,57.62
2019-03-05T00:32:52.659Z,57.69
2019-03-05T00:35:45.400Z,57.62
2019-03-05T00:38:50.285Z,57.34
2019-03-05T00:41:32.023Z,57.52
2019-03-05T00:44:07.814Z,57.66
2019-03-05T00:46:46.776Z,57.82
2019-03-05T00:49:19.661Z,57.78
2019-03-05T00:51:52.510Z,58.00
2019-03-05T00:54:40.223Z,57.91
2019-03-05T00:57:15.782Z,58.33
2019-03-05T01:00:17.812Z,58.55
2019-03-05T01:02:50.662Z,58.31
2019-03-05T01:05:50.227Z,58.32
2019-03-05T01:08:20.052Z,58.65
2019-03-05T01:10:49.814Z,58.89
2019-03-05T01:13:19.616Z,58.81
2019-03-05T01:15:49.507Z,58.66
2019-03-05T01:18:19.222Z,58.96
2019-03-05T01:20:48.980Z,58.93
2019-03-05T01:23:18.736Z,58.78
2019-03-05T01:25:48.558Z,59.03
2019-03-05T01:28:18.461Z,58.96
2019-03-05T01:31:06.202Z,58.94
2019-03-05T01:33:40.353Z,58.87
2019-03-05T01:36:11.703Z,58.84
2019-03-05T01:38:49.065Z,58.65
2019-03-05T01:41:18.971Z,58.56
2019-03-05T01:43:48.772Z,58.41
2019-03-05T01:46:18.565Z,58.17
2019-03-05T01:48:48.334Z,58.17
2019-03-05T01:51:18.093Z,58.07
2019-03-05T01:53:47.930Z,58.00
2019-03-05T01:56:17.659Z,57.90
2019-03-05T01:58:47.423Z,57.84
2019-03-05T02:01:19.381Z,57.80
2019-03-05T02:03:49.150Z,57.91
2019-03-05T02:06:18.877Z,57.65
2019-03-05T02:08:48.635Z,57.48
2019-03-05T02:11:18.368Z,57.37
2019-03-05T02:13:48.134Z,57.36
2019-03-05T02:16:17.946Z,57.25
2019-03-05T02:18:47.734Z,57.35
2019-03-05T02:21:17.471Z,57.19
2019-03-05T02:24:02.256Z,57.27
2019-03-05T02:26:59.474Z,57.47
2019-03-05T02:29:47.264Z,57.42
2019-03-05T02:32:28.862Z,57.30
2019-03-05T02:35:04.640Z,57.26
2019-03-05T02:37:43.334Z,57.24
2019-03-05T02:40:22.469Z,57.21
2019-03-05T02:43:10.594Z,57.41
2019-03-05T02:46:01.374Z,57.32
2019-03-05T02:48:55.514Z,57.14
2019-03-05T02:51:28.432Z,56.86
2019-03-05T02:54:04.008Z,56.51
2019-03-05T02:56:45.670Z,56.54
2019-03-05T02:59:14.321Z,56.50
2019-03-05T03:01:48.393Z,56.47
2019-03-05T03:04:22.692Z,56.39
2019-03-05T03:06:52.445Z,56.36
2019-03-05T03:09:25.402Z,56.36
2019-03-05T03:11:55.193Z,56.54
2019-03-05T03:14:24.914Z,56.48
2019-03-05T03:16:54.713Z,56.44
2019-03-05T03:19:24.442Z,56.47
2019-03-05T03:21:54.202Z,56.45
2019-03-05T03:24:23.962Z,56.32
2019-03-05T03:26:53.740Z,56.27
2019-03-05T03:29:23.503Z,56.58
2019-03-05T03:31:53.272Z,56.48
2019-03-05T03:34:23.042Z,56.50
2019-03-05T03:36:52.795Z,56.50
2019-03-05T03:39:22.548Z,56.80
2019-03-05T03:41:52.280Z,56.80
2019-03-05T03:44:22.060Z,56.77
2019-03-05T03:46:51.838Z,57.07
2019-03-05T03:49:21.618Z,57.16
2019-03-05T03:51:51.658Z,57.32
2019-03-05T03:54:21.551Z,57.61
2019-03-05T03:56:51.310Z,57.93
2019-03-05T03:59:21.065Z,58.20
2019-03-05T04:01:50.832Z,58.55
2019-03-05T04:04:20.556Z,58.68
2019-03-05T04:06:50.314Z,58.98
2019-03-05T04:09:20.135Z,59.21
2019-03-05T04:11:49.882Z,59.22
2019-03-05T04:14:19.603Z,59.24
2019-03-05T04:16:49.373Z,59.51
2019-03-05T04:19:20.674Z,59.67
2019-03-05T04:21:50.439Z,59.64
2019-03-05T04:24:20.166Z,59.68
2019-03-05T04:26:49.920Z,59.79
2019-03-05T04:29:19.637Z,59.95
2019-03-05T04:31:49.403Z,59.90
2019-03-05T04:34:19.128Z,59.87
2019-03-05T04:36:48.875Z,59.89
2019-03-05T04:39:18.606Z,59.89
2019-03-05T04:41:48.361Z,59.70
2019-03-05T04:44:19.666Z,59.91
2019-03-05T04:46:50.629Z,59.83
2019-03-05T04:49:26.552Z,59.73
2019-03-05T04:51:58.127Z,59.89
2019-03-05T04:54:27.854Z,59.84
2019-03-05T04:56:57.615Z,59.84
2019-03-05T04:59:27.332Z,59.77
2019-03-05T05:01:57.124Z,60.08
2019-03-05T05:04:26.844Z,59.95
2019-03-05T05:06:56.638Z,59.89
2019-03-05T05:09:29.404Z,59.97
2019-03-05T05:11:59.227Z,59.99
2019-03-05T05:14:33.430Z,60.11
2019-03-05T05:17:03.243Z,60.17
2019-03-05T05:19:32.964Z,60.13
2019-03-05T05:22:03.283Z,60.21
2019-03-05T05:24:33.020Z,60.23
2019-03-05T05:27:02.794Z,59.94
2019-03-05T05:29:32.980Z,59.91
2019-03-05T05:32:02.774Z,59.93
2019-03-05T05:34:32.549Z,59.97
2019-03-05T05:37:03.417Z,59.66
2019-03-05T05:40:09.630Z,59.67
2019-03-05T05:42:39.392Z,59.47
2019-03-05T05:45:15.950Z,59.03
2019-03-05T05:47:47.340Z,59.12
2019-03-05T05:50:17.103Z,59.03
2019-03-05T05:52:46.864Z,58.79
2019-03-05T05:55:16.590Z,58.82
2019-03-05T05:57:46.618Z,58.87
2019-03-05T06:00:16.979Z,58.85
2019-03-05T06:02:46.739Z,58.67
2019-03-05T06:05:16.473Z,58.69
2019-03-05T06:07:46.243Z,58.53
2019-03-05T06:10:15.974Z,58.44
2019-03-05T06:12:45.737Z,58.18
2019-03-05T06:15:16.071Z,58.32
2019-03-05T06:17:45.847Z,58.26
2019-03-05T06:20:16.679Z,58.36
2019-03-05T06:22:46.457Z,58.16
2019-03-05T06:25:16.189Z,58.39
2019-03-05T06:27:45.945Z,58.05
2019-03-05T06:30:21.335Z,58.29
2019-03-05T06:32:51.122Z,58.23
2019-03-05T06:35:20.858Z,58.20
2019-03-05T06:37:50.736Z,58.12
2019-03-05T06:40:23.552Z,58.25
2019-03-05T06:42:53.365Z,58.28
2019-03-05T06:45:23.100Z,57.95
2019-03-05T06:47:56.842Z,58.05
2019-03-05T06:50:31.069Z,57.74
2019-03-05T06:53:01.251Z,57.92
2019-03-05T06:55:31.687Z,58.11
2019-03-05T06:58:01.939Z,58.21
2019-03-05T07:00:37.136Z,58.22
2019-03-05T07:03:14.109Z,58.33
2019-03-05T07:06:20.915Z,58.58
2019-03-05T07:08:53.790Z,58.75
2019-03-05T07:11:46.073Z,59.18
2019-03-05T07:14:35.710Z,59.25
2019-03-05T07:17:12.433Z,59.38
2019-03-05T07:20:01.729Z,59.41
2019-03-05T07:22:57.895Z,59.47
2019-03-05T07:25:27.654Z,59.63
2019-03-05T07:28:00.143Z,59.94
2019-03-05T07:30:30.973Z,60.25
2019-03-05T07:33:00.734Z,60.52
2019-03-05T07:35:32.626Z,60.60
2019-03-05T07:38:02.418Z,60.87
2019-03-05T07:40:33.839Z,61.05
2019-03-05T07:43:03.439Z,61.37
2019-03-05T07:45:33.192Z,61.53
2019-03-05T07:48:02.976Z,61.78
2019-03-05T07:50:32.749Z,61.97
2019-03-05T07:53:02.522Z,61.94
2019-03-05T07:55:32.295Z,61.89
2019-03-05T07:58:02.122Z,61.79
2019-03-05T08:00:31.847Z,62.08
2019-03-05T08:03:01.639Z,61.88
2019-03-05T08:05:31.406Z,61.85
2019-03-05T08:08:37.425Z,61.82
2019-03-05T08:11:08.711Z,62.04
2019-03-05T08:13:41.638Z,61.94
2019-03-05T08:16:12.957Z,61.91
2019-03-05T08:18:45.232Z,61.70
2019-03-05T08:21:14.962Z,61.83
2019-03-05T08:23:44.746Z,61.44
2019-03-05T08:26:14.478Z,61.62
2019-03-05T08:28:44.249Z,61.29
2019-03-05T08:31:14.016Z,61.51
2019-03-05T08:33:43.813Z,61.43
2019-03-05T08:36:13.575Z,61.50
2019-03-05T08:38:43.336Z,61.72
2019-03-05T08:41:13.098Z,61.59
2019-03-05T08:43:42.818Z,61.92
2019-03-05T08:46:12.578Z,62.10
2019-03-05T08:48:42.301Z,61.86
2019-03-05T08:51:12.182Z,61.86
2019-03-05T08:53:49.490Z,61.82
2019-03-05T08:56:13.400Z,60.75
2019-03-05T08:58:43.133Z,60.40
2019-03-05T09:01:12.921Z,60.09
2019-03-05T09:03:42.648Z,59.83
2019-03-05T09:06:12.437Z,59.53
2019-03-05T09:08:42.165Z,59.03
2019-03-05T09:11:11.933Z,58.99
2019-03-05T09:13:41.696Z,58.79
2019-03-05T09:16:11.485Z,58.44
2019-03-05T09:18:41.238Z,57.78
2019-03-05T09:21:13.502Z,57.02
2019-03-05T09:23:43.465Z,55.89
2019-03-05T09:26:13.312Z,55.58
2019-03-05T09:28:43.491Z,54.57
2019-03-05T09:31:13.337Z,54.77
2019-03-05T09:33:43.122Z,54.47
2019-03-05T09:36:12.879Z,54.53
2019-03-05T09:38:42.902Z,53.97
2019-03-05T09:41:13.732Z,53.42
2019-03-05T09:43:43.489Z,52.32
2019-03-05T09:46:13.620Z,52.56
2019-03-05T09:48:43.466Z,52.58
2019-03-05T09:51:13.194Z,52.47
2019-03-05T09:53:43.947Z,52.43
2019-03-05T09:56:13.683Z,52.74
2019-03-05T09:58:43.471Z,52.92
2019-03-05T10:01:13.203Z,52.85
2019-03-05T10:03:43.045Z,52.93
2019-03-05T10:06:12.918Z,52.42
2019-03-05T10:08:42.676Z,51.57
2019-03-05T10:11:12.589Z,51.70
2019-03-05T10:13:42.334Z,51.22
2019-03-05T10:16:12.096Z,51.12
2019-03-05T10:18:42.196Z,51.17
2019-03-05T10:21:12.426Z,50.00
2019-03-05T10:23:42.156Z,50.05
2019-03-05T10:26:12.346Z,49.35
2019-03-05T10:28:42.279Z,48.85
2019-03-05T10:31:12.055Z,49.05
2019-03-05T10:33:41.788Z,49.37
2019-03-05T10:36:13.096Z,49.79
2019-03-05T10:38:42.832Z,49.83
2019-03-05T10:41:14.324Z,49.88
2019-03-05T10:43:44.051Z,50.01
2019-03-05T10:46:16.083Z,49.93
2019-03-05T10:48:45.835Z,49.62
2019-03-05T10:51:20.050Z,49.27
2019-03-05T10:53:51.276Z,49.43
2019-03-05T10:56:21.035Z,48.84
2019-03-05T10:58:50.801Z,47.79
2019-03-05T11:01:20.795Z,47.53
2019-03-05T11:03:50.520Z,47.64
2019-03-05T11:06:20.303Z,47.08
2019-03-05T11:08:50.454Z,46.47
2019-03-05T11:11:20.236Z,45.87
2019-03-05T11:13:50.066Z,46.07
2019-03-05T11:16:30.121Z,46.03
2019-03-05T11:18:51.330Z,46.70
2019-03-05T11:21:21.127Z,46.01
2019-03-05T11:23:50.892Z,46.25
2019-03-05T11:26:23.935Z,45.94
2019-03-05T11:28:54.768Z,45.87
2019-03-05T11:31:24.774Z,45.52
2019-03-05T11:33:54.554Z,44.58
2019-03-05T11:36:24.650Z,42.90
2019-03-05T11:38:54.408Z,43.83
2019-03-05T11:41:24.189Z,42.82
2019-03-05T11:43:54.275Z,43.67
2019-03-05T11:46:24.016Z,43.38
2019-03-05T11:48:53.787Z,42.83
2019-03-05T11:51:23.524Z,42.25
2019-03-05T11:53:53.321Z,41.81
2019-03-05T11:56:23.068Z,42.73
2019-03-05T11:58:52.874Z,43.02
2019-03-05T12:01:24.192Z,42.12
2019-03-05T12:03:54.901Z,43.83
2019-03-05T12:06:26.082Z,44.58
2019-03-05T12:08:55.985Z,44.78
2019-03-05T12:11:31.502Z,44.66
2019-03-05T12:14:06.606Z,44.14
2019-03-05T12:16:36.523Z,43.53
2019-03-05T12:19:15.671Z,44.47
2019-03-05T12:21:46.477Z,44.43
2019-03-05T12:24:19.947Z,43.20
2019-03-05T12:26:51.266Z,43.51
2019-03-05T12:29:22.841Z,42.42
2019-03-05T12:32:02.634Z,42.83
2019-03-05T12:34:29.295Z,43.81
2019-03-05T12:37:00.682Z,44.03
2019-03-05T12:39:31.674Z,43.62
2019-03-05T12:42:07.087Z,44.25
2019-03-05T12:44:38.348Z,45.02
2019-03-05T12:47:08.055Z,45.46
2019-03-05T12:49:39.397Z,45.63
2019-03-05T12:52:09.131Z,51.59
2019-03-05T12:54:38.896Z,56.13
2019-03-05T12:57:08.653Z,58.41
2019-03-05T12:59:38.421Z,60.48
2019-03-05T13:02:08.155Z,62.95
2019-03-05T13:04:37.937Z,63.31
2019-03-05T13:07:07.770Z,63.65
2019-03-05T13:09:37.533Z,63.45
2019-03-05T13:12:07.361Z,64.28
2019-03-05T13:14:38.382Z,63.43
2019-03-05T13:17:09.391Z,63.23
2019-03-05T13:19:39.175Z,63.16
2019-03-05T13:22:08.937Z,62.85
2019-03-05T13:24:38.693Z,62.95
2019-03-05T13:27:08.455Z,61.79
2019-03-05T13:29:38.172Z,61.59
2019-03-05T13:32:07.942Z,60.24
2019-03-05T13:34:37.676Z,59.67
2019-03-05T13:37:07.458Z,58.16
2019-03-05T13:39:37.200Z,58.24
2019-03-05T13:42:08.009Z,57.35
2019-03-05T13:44:38.083Z,56.48
2019-03-05T13:47:07.858Z,55.37
2019-03-05T13:49:56.497Z,55.07
2019-03-05T13:52:57.708Z,54.93
2019-03-05T13:55:30.598Z,54.38
2019-03-05T13:58:03.503Z,54.91
2019-03-05T14:00:33.263Z,54.84
2019-03-05T14:03:11.409Z,54.76
2019-03-05T14:05:50.464Z,55.03
2019-03-05T14:08:44.753Z,54.96
2019-03-05T14:11:14.521Z,55.10
2019-03-05T14:13:44.329Z,54.51
2019-03-05T14:16:15.679Z,53.59
2019-03-05T14:18:45.471Z,53.54
2019-03-05T14:21:15.259Z,53.29
2019-03-05T14:23:45.017Z,53.22
2019-03-05T14:26:14.837Z,51.93
2019-03-05T14:28:44.681Z,50.92
2019-03-05T14:31:14.446Z,51.32
2019-03-05T14:33:45.764Z,50.79
2019-03-05T14:36:15.506Z,51.20
2019-03-05T14:38:45.279Z,50.81
2019-03-05T14:41:15.046Z,51.50
2019-03-05T14:43:44.878Z,51.07
2019-03-05T14:46:14.582Z,51.42
2019-03-05T14:48:44.406Z,51.08
2019-03-05T14:51:14.113Z,50.87
2019-03-05T14:53:43.944Z,51.91
2019-03-05T14:56:13.750Z,51.55
2019-03-05T14:58:43.501Z,51.04
2019-03-05T15:01:13.285Z,51.54
2019-03-05T15:03:43.021Z,51.34
2019-03-05T15:06:12.833Z,50.32
2019-03-05T15:08:42.672Z,50.44
2019-03-05T15:11:12.435Z,50.03
2019-03-05T15:13:42.273Z,49.14
2019-03-05T15:16:12.106Z,48.63
2019-03-05T15:18:42.132Z,47.73
2019-03-05T15:21:11.995Z,46.66
2019-03-05T15:23:41.974Z,46.10
2019-03-05T15:26:11.758Z,46.68
2019-03-05T15:28:55.738Z,46.88
2019-03-05T15:31:16.168Z,46.59
2019-03-05T15:33:46.034Z,46.72
2019-03-05T15:36:23.733Z,47.38
2019-03-05T15:38:47.318Z,47.95
2019-03-05T15:41:17.194Z,47.81
2019-03-05T15:43:47.181Z,48.39
2019-03-05T15:46:18.721Z,48.75
2019-03-05T15:48:49.201Z,48.92
2019-03-05T15:51:19.002Z,49.37
2019-03-05T15:53:48.849Z,49.66
2019-03-05T15:56:18.626Z,49.70
2019-03-05T15:58:48.410Z,50.07
2019-03-05T16:01:22.355Z,50.43
2019-03-05T16:03:49.635Z,50.21
2019-03-05T16:06:19.466Z,50.90
2019-03-05T16:08:49.204Z,50.84
2019-03-05T16:11:18.964Z,50.76
2019-03-05T16:13:52.367Z,50.83
2019-03-05T16:16:22.702Z,51.22
2019-03-05T16:18:52.439Z,51.31
2019-03-05T16:21:22.204Z,51.30
2019-03-05T16:23:53.397Z,54.62
2019-03-05T16:26:24.810Z,57.84
2019-03-05T16:28:57.364Z,59.24
2019-03-05T16:31:29.019Z,60.30
2019-03-05T16:34:09.526Z,60.98
2019-03-05T16:36:40.940Z,60.08
2019-03-05T16:39:21.583Z,59.88
2019-03-05T16:42:09.572Z,60.83
2019-03-05T16:44:40.858Z,61.38
2019-03-05T16:47:27.254Z,62.33
2019-03-05T16:50:11.419Z,62.95
2019-03-05T16:52:45.507Z,63.21
2019-03-05T16:55:35.135Z,63.63
2019-03-05T16:58:18.505Z,63.96
2019-03-05T17:00:49.822Z,63.78
2019-03-05T17:03:27.221Z,64.50
2019-03-05T17:06:01.491Z,64.75
2019-03-05T17:08:41.617Z,65.12
2019-03-05T17:11:25.027Z,65.61
2019-03-05T17:13:54.799Z,66.04
2019-03-05T17:16:24.722Z,66.00
2019-03-05T17:18:54.513Z,66.04
2019-03-05T17:31:02.997Z,65.83
2019-03-05T17:33:34.960Z,66.00
2019-03-05T17:36:06.343Z,65.80
2019-03-05T17:38:37.749Z,65.78
2019-03-05T17:41:10.105Z,65.60
2019-03-05T17:43:44.391Z,65.57
2019-03-05T17:46:14.351Z,65.36
2019-03-05T17:48:46.215Z,65.32
2019-03-05T17:51:16.416Z,65.14
2019-03-05T17:53:46.487Z,65.11
2019-03-05T17:56:17.128Z,64.97
2019-03-05T17:58:49.345Z,64.79
2019-03-05T18:01:21.798Z,64.72
2019-03-05T18:04:02.131Z,64.66
2019-03-05T18:06:41.527Z,64.64
2019-03-05T18:09:13.541Z,64.92
2019-03-05T18:11:56.389Z,64.93
2019-03-05T18:17:33.601Z,65.04
2019-03-05T19:42:28.791Z,69.20
2019-03-05T19:45:02.332Z,69.55
2019-03-05T19:47:38.530Z,69.59
2019-03-05T21:50:07.701Z,72.44
2019-03-05T22:05:29.919Z,72.54
2019-03-05T22:17:45.369Z,72.81
2019-03-05T22:20:16.928Z,72.46
2019-03-05T22:22:46.695Z,72.59
2019-03-05T22:25:23.436Z,72.46
2019-03-05T22:27:53.247Z,72.58
2019-03-05T22:30:30.615Z,72.37
2019-03-05T22:33:00.394Z,72.23
2019-03-05T22:35:30.176Z,72.45
2019-03-05T22:38:00.646Z,72.44
2019-03-05T22:40:30.442Z,72.50
2019-03-05T22:43:00.220Z,72.57
2019-03-05T22:45:31.230Z,72.34
2019-03-05T22:48:01.013Z,72.46
2019-03-05T22:50:30.786Z,72.16
2019-03-05T22:53:00.551Z,72.13
2019-03-05T22:55:30.292Z,72.26
2019-03-05T22:58:00.344Z,72.11
2019-03-05T23:00:58.259Z,72.33
2019-03-05T23:03:29.841Z,72.36
2019-03-05T23:06:00.382Z,72.40
2019-03-05T23:08:30.140Z,72.43
2019-03-05T23:10:59.998Z,72.32
2019-03-05T23:13:29.875Z,72.44
2019-03-05T23:15:59.883Z,72.28
2019-03-05T23:18:30.150Z,72.46
2019-03-05T23:20:59.883Z,72.50
2019-03-05T23:23:29.671Z,72.33
2019-03-05T23:25:59.402Z,72.63
2019-03-05T23:28:29.259Z,72.58
2019-03-05T23:30:59.004Z,72.65
2019-03-05T23:33:28.784Z,72.83
2019-03-05T23:35:58.562Z,72.87
2019-03-05T23:38:28.357Z,72.83
2019-03-05T23:40:58.119Z,73.06
2019-03-05T23:43:27.931Z,73.14
2019-03-05T23:45:57.704Z,73.33
2019-03-05T23:48:27.485Z,73.31
2019-03-05T23:50:57.537Z,73.16
2019-03-05T23:53:27.285Z,73.12
2019-03-05T23:55:57.059Z,73.22
2019-03-05T23:58:26.795Z,73.54
